Time;durP1;ratioP1;P1;durP2;ratioP2;P2;SDS_P1;SDS_P2;PMS_P1;PMS_P2;Temp;Humidity;BMP_temperature;BMP_pressure;BME280_temperature;BME280_humidity;BME280_pressure;Samples;Min_cycle;Max_cycle;Signal;HPM_P1;HPM_P2
2021/10/19 00:01:46;;;;;;;9.52;6.65;;;;;;;17.67;56.00;101802.09;4835694;29;124658;-73
2021/10/19 00:04:14;;;;;;;10.35;6.38;;;;;;;17.65;56.03;101804.03;4831184;29;123729;-74
2021/10/19 00:06:41;;;;;;;8.52;6.07;;;;;;;17.65;56.30;101804.03;4836548;29;114694;-74
2021/10/19 00:09:08;;;;;;;7.93;6.25;;;;;;;17.65;56.06;101812.06;4836391;29;114239;-74
2021/10/19 00:11:35;;;;;;;10.35;6.75;;;;;;;17.66;56.27;101810.22;4845596;29;122242;-74
2021/10/19 00:14:02;;;;;;;9.73;5.75;;;;;;;17.67;56.19;101803.94;4833550;29;123816;-74
2021/10/19 00:16:29;;;;;;;9.60;6.05;;;;;;;17.67;56.39;101796.75;4832218;29;115311;-74
2021/10/19 00:18:56;;;;;;;9.32;6.22;;;;;;;17.67;56.27;101802.09;4836247;29;114133;-74
2021/10/19 00:21:24;;;;;;;8.60;6.10;;;;;;;17.69;56.25;101800.19;4834011;29;124824;-74
2021/10/19 00:23:51;;;;;;;9.57;6.10;;;;;;;17.69;56.47;101816.28;4830309;29;124459;-73
2021/10/19 00:26:19;;;;;;;9.00;5.65;;;;;;;17.70;56.23;101823.34;4834845;29;113205;-74
2021/10/19 00:28:46;;;;;;;10.48;6.40;;;;;;;17.73;56.45;101821.47;4834962;29;113829;-74
2021/10/19 00:31:13;;;;;;;8.18;5.82;;;;;;;17.73;56.57;101806.22;4835343;29;123939;-74
2021/10/19 00:33:40;;;;;;;10.07;6.63;;;;;;;17.76;56.63;101807.84;4835005;29;123974;-74
2021/10/19 00:36:07;;;;;;;10.85;6.03;;;;;;;17.76;56.49;101810.53;4833433;29;114066;-74
2021/10/19 00:38:34;;;;;;;9.20;6.30;;;;;;;17.80;56.46;101814.75;4834581;29;113191;-73
2021/10/19 00:41:02;;;;;;;9.38;6.43;;;;;;;17.80;56.64;101818.31;4833652;29;122631;-74
2021/10/19 00:43:29;;;;;;;9.88;6.10;;;;;;;17.81;56.72;101819.16;4834758;29;124309;-74
2021/10/19 00:45:56;;;;;;;10.43;6.32;;;;;;;17.81;56.84;101805.78;4838035;29;113937;-73
2021/10/19 00:48:28;;;;;;;9.25;6.03;;;;;;;17.80;56.91;101801.34;4841852;29;114287;-74
2021/10/19 00:50:55;;;;;;;10.23;6.45;;;;;;;17.81;56.94;101805.78;4834037;29;124094;-73
2021/10/19 00:53:23;;;;;;;8.35;5.88;;;;;;;17.82;56.93;101799.44;4839213;29;122675;-73
2021/10/19 00:55:51;;;;;;;9.75;6.72;;;;;;;17.81;57.05;101801.28;4838153;29;113709;-74
2021/10/19 00:58:18;;;;;;;9.95;6.57;;;;;;;17.81;57.00;101797.72;4842742;29;114039;-73
2021/10/19 01:00:46;;;;;;;10.20;6.03;;;;;;;17.81;57.07;101797.72;4842047;29;124758;-74
2021/10/19 01:03:13;;;;;;;9.07;5.63;;;;;;;17.83;57.26;101806.53;4841900;29;122759;-74
2021/10/19 01:05:40;;;;;;;10.00;6.43;;;;;;;17.82;57.26;101797.66;4841827;29;116456;-74
2021/10/19 01:08:10;;;;;;;8.75;6.07;;;;;;;17.84;57.16;101794.88;4841509;29;114874;-73
2021/10/19 01:10:37;;;;;;;8.50;5.85;;;;;;;17.83;57.16;101793.13;4835578;29;123790;-74
2021/10/19 01:13:05;;;;;;;10.45;6.32;;;;;;;17.84;57.32;101797.56;4837092;29;123341;-73
2021/10/19 01:15:33;;;;;;;8.38;5.85;;;;;;;17.84;57.49;101797.56;4837712;29;114628;-73
2021/10/19 01:18:01;;;;;;;11.07;6.60;;;;;;;17.83;57.54;101794.00;4838837;29;113911;-74
2021/10/19 01:20:30;;;;;;;9.43;6.25;;;;;;;17.83;57.45;101801.19;4836374;29;123891;-73
2021/10/19 01:22:59;;;;;;;10.73;6.35;;;;;;;17.84;57.67;101802.91;4838808;29;124710;-74
2021/10/19 01:25:28;;;;;;;9.23;6.10;;;;;;;17.82;57.62;101794.09;4837744;29;113948;-73
2021/10/19 01:28:05;;;;;;;9.63;6.22;;;;;;;17.83;57.85;101790.47;4851679;29;113550;-74
2021/10/19 01:30:39;;;;;;;8.40;6.22;;;;;;;17.83;57.77;101779.75;4833126;29;123847;-73
2021/10/19 01:33:07;;;;;;;9.07;6.10;;;;;;;17.83;57.77;101782.41;4834314;29;124115;-74
2021/10/19 01:35:39;;;;;;;9.07;6.25;;;;;;;17.83;57.88;101779.75;4836783;29;114416;-73
2021/10/19 01:38:10;;;;;;;10.68;6.30;;;;;;;17.83;57.99;101774.38;4838014;29;112810;-74
2021/10/19 01:40:38;;;;;;;9.27;5.78;;;;;;;17.82;57.88;101767.28;4836743;29;123993;-74
2021/10/19 01:43:18;;;;;;;9.15;5.93;;;;;;;17.80;58.02;101769.19;4837791;29;123984;-74
2021/10/19 01:45:59;;;;;;;9.95;5.88;;;;;;;17.80;58.00;101758.47;4833076;29;114657;-74
2021/10/19 01:48:27;;;;;;;9.43;5.82;;;;;;;17.78;58.32;101761.28;4834697;29;114257;-74
2021/10/19 01:50:55;;;;;;;9.18;5.75;;;;;;;17.79;58.10;101756.78;4834167;29;123787;-74
2021/10/19 01:53:23;;;;;;;8.50;5.93;;;;;;;17.78;58.44;101760.41;4835416;29;122666;-74
2021/10/19 01:55:52;;;;;;;8.82;5.40;;;;;;;17.81;58.62;101754.84;4835873;29;114831;-74
2021/10/19 01:58:24;;;;;;;10.10;6.20;;;;;;;17.81;58.50;101745.00;4838094;29;114733;-73
2021/10/19 02:00:55;;;;;;;9.13;6.03;;;;;;;17.81;58.71;101733.41;4835493;29;124510;-74
2021/10/19 02:03:23;;;;;;;10.50;6.15;;;;;;;17.81;58.75;101733.41;4836361;29;123986;-73
2021/10/19 02:05:51;;;;;;;9.45;6.13;;;;;;;17.79;58.61;101728.16;4832523;29;114303;-74
2021/10/19 02:08:18;;;;;;;9.50;5.88;;;;;;;17.80;58.78;101726.31;4835689;29;113469;-74
2021/10/19 02:10:45;;;;;;;10.98;6.10;;;;;;;17.79;58.89;101721.94;4835198;29;123045;-74
2021/10/19 02:13:13;;;;;;;9.55;5.82;;;;;;;17.78;59.00;101722.88;4835663;29;125311;-73
2021/10/19 02:15:41;;;;;;;8.32;5.68;;;;;;;17.78;59.19;101722.88;4838224;29;114429;-75
2021/10/19 02:18:08;;;;;;;9.43;6.22;;;;;;;17.78;59.14;101720.19;4837818;29;114641;-75
2021/10/19 02:20:37;;;;;;;8.85;5.70;;;;;;;17.78;59.34;101706.81;4833296;29;122048;-74
2021/10/19 02:23:05;;;;;;;11.10;6.18;;;;;;;17.79;59.27;101703.19;4835818;29;123841;-75
2021/10/19 02:25:32;;;;;;;8.43;5.57;;;;;;;17.80;59.38;101699.53;4836115;29;113750;-75
2021/10/19 02:27:59;;;;;;;11.30;6.03;;;;;;;17.82;59.52;101697.59;4835356;29;113727;-75
2021/10/19 02:30:27;;;;;;;9.23;6.45;;;;;;;17.84;59.65;101695.72;4835248;29;124028;-75
2021/10/19 02:32:55;;;;;;;9.68;6.28;;;;;;;17.85;59.71;101697.47;4836766;29;123977;-74
2021/10/19 02:35:23;;;;;;;8.52;6.47;;;;;;;17.86;59.82;101699.19;4833168;29;113810;-74
2021/10/19 02:37:53;;;;;;;9.63;6.45;;;;;;;17.87;59.86;101690.19;4837350;29;114539;-74
2021/10/19 02:40:21;;;;;;;11.55;6.47;;;;;;;17.88;59.92;101697.28;4834359;29;122072;-74
2021/10/19 02:42:48;;;;;;;10.07;5.85;;;;;;;17.88;59.94;101691.94;4836657;29;123923;-74
2021/10/19 02:45:15;;;;;;;9.00;5.80;;;;;;;17.90;60.01;101684.66;4836966;29;115334;-74
2021/10/19 02:47:43;;;;;;;10.38;6.05;;;;;;;17.91;60.32;101689.03;4851781;29;113853;-74
2021/10/19 02:50:11;;;;;;;9.98;6.68;;;;;;;17.91;60.18;101691.72;4835849;29;124262;-74
2021/10/19 02:52:38;;;;;;;9.23;5.82;;;;;;;17.94;60.28;101691.53;4834615;29;124121;-74
2021/10/19 02:55:07;;;;;;;9.38;6.05;;;;;;;17.95;60.31;101687.91;4838272;29;114298;-74
2021/10/19 02:57:34;;;;;;;8.77;5.95;;;;;;;17.98;60.06;101682.34;4837839;29;113898;-73
2021/10/19 03:00:04;;;;;;;8.60;5.93;;;;;;;18.00;60.39;101684.94;4837750;29;124514;-73
2021/10/19 03:02:32;;;;;;;7.57;5.63;;;;;;;18.00;60.34;101675.06;4836385;29;124095;-73
2021/10/19 03:04:59;;;;;;;8.82;6.38;;;;;;;18.01;60.40;101674.13;4835315;29;115023;-73
2021/10/19 03:07:26;;;;;;;9.73;5.97;;;;;;;18.01;60.51;101660.72;4834428;29;113969;-73
2021/10/19 03:09:53;;;;;;;8.65;5.75;;;;;;;18.02;60.33;101667.78;4835928;29;123872;-73
2021/10/19 03:12:20;;;;;;;9.88;5.72;;;;;;;18.02;60.42;101673.13;4835550;29;123257;-73
2021/10/19 03:14:47;;;;;;;10.32;6.07;;;;;;;18.02;60.39;101662.41;4837300;29;114441;-73
2021/10/19 03:17:14;;;;;;;9.02;6.40;;;;;;;18.02;60.56;101665.09;4837229;29;113808;-73
2021/10/19 03:19:41;;;;;;;10.20;6.38;;;;;;;18.01;60.59;101668.75;4836548;29;124405;-73
2021/10/19 03:22:08;;;;;;;9.15;6.32;;;;;;;18.01;60.43;101666.06;4836458;29;123677;-73
2021/10/19 03:24:36;;;;;;;9.68;6.40;;;;;;;18.00;60.59;101664.34;4836887;29;113789;-73
2021/10/19 03:27:03;;;;;;;10.93;6.60;;;;;;;18.00;60.85;101664.34;4835778;29;114157;-73
2021/10/19 03:29:30;;;;;;;8.55;6.07;;;;;;;17.99;60.85;101662.63;4833162;29;123954;-73
2021/10/19 03:31:57;;;;;;;11.07;6.50;;;;;;;17.99;60.67;101662.63;4833954;29;123687;-73
2021/10/19 03:34:24;;;;;;;11.70;5.93;;;;;;;17.97;60.87;101653.81;4836581;29;115187;-73
2021/10/19 03:36:51;;;;;;;8.25;6.07;;;;;;;17.97;60.77;101656.50;4835548;29;114899;-73
2021/10/19 03:39:18;;;;;;;10.68;6.90;;;;;;;17.95;60.89;101658.44;4833137;29;124824;-73
2021/10/19 03:41:45;;;;;;;10.95;7.07;;;;;;;17.93;60.88;101654.94;4835146;29;123885;-73
2021/10/19 03:44:13;;;;;;;10.23;6.65;;;;;;;17.92;60.98;101661.28;4836662;29;113854;-73
2021/10/19 03:46:40;;;;;;;9.55;6.65;;;;;;;17.90;61.13;101657.84;4836845;29;114060;-73
2021/10/19 03:49:07;;;;;;;9.93;6.47;;;;;;;17.88;61.13;101651.72;4830843;29;123891;-73
2021/10/19 03:51:34;;;;;;;10.85;7.10;;;;;;;17.88;61.12;101649.03;4836270;29;124561;-74
2021/10/19 03:54:01;;;;;;;10.40;6.88;;;;;;;17.86;61.20;101642.91;4835326;29;113229;-73
2021/10/19 03:56:28;;;;;;;10.23;6.60;;;;;;;17.85;61.38;101644.72;4836678;29;113649;-73
2021/10/19 03:58:56;;;;;;;9.60;6.68;;;;;;;17.84;61.32;101636.78;4835891;29;124162;-73
2021/10/19 04:01:23;;;;;;;10.52;6.68;;;;;;;17.83;61.33;101635.03;4835874;29;123207;-73
2021/10/19 04:03:50;;;;;;;10.02;7.00;;;;;;;17.84;61.32;101642.13;4835511;29;115005;-73
2021/10/19 04:06:17;;;;;;;11.65;7.13;;;;;;;17.82;61.43;101633.28;4834431;29;114300;-73
2021/10/19 04:08:44;;;;;;;9.18;6.80;;;;;;;17.83;61.41;101635.03;4835096;29;124273;-73
2021/10/19 04:11:12;;;;;;;10.05;6.75;;;;;;;17.81;61.45;101636.94;4834910;29;123787;-73
2021/10/19 04:13:39;;;;;;;9.05;6.70;;;;;;;17.78;61.61;101642.50;4833687;29;114930;-73
2021/10/19 04:16:06;;;;;;;9.82;6.97;;;;;;;17.78;61.54;101637.13;4833968;29;113852;-73
2021/10/19 04:18:33;;;;;;;9.57;6.85;;;;;;;17.77;61.65;101633.59;4833831;29;124762;-73
2021/10/19 04:21:01;;;;;;;10.40;6.35;;;;;;;17.78;61.92;101631.78;4834854;29;124110;-73
2021/10/19 04:23:28;;;;;;;12.80;7.10;;;;;;;17.79;61.68;101639.72;4835769;29;115112;-73
2021/10/19 04:25:55;;;;;;;10.38;6.80;;;;;;;17.79;61.86;101629.00;4836436;29;115567;-73
2021/10/19 04:28:22;;;;;;;9.65;6.50;;;;;;;17.80;61.84;101629.84;4833751;29;123904;-73
2021/10/19 04:30:51;;;;;;;10.38;6.80;;;;;;;17.79;61.73;101634.34;4833895;29;123004;-73
2021/10/19 04:33:18;;;;;;;10.05;6.72;;;;;;;17.80;61.93;101640.56;4835983;29;115170;-73
2021/10/19 04:35:46;;;;;;;11.25;6.68;;;;;;;17.82;61.88;101638.66;4836039;29;113870;-73
2021/10/19 04:38:13;;;;;;;10.95;7.00;;;;;;;17.81;61.83;101636.94;4834444;29;123808;-73
2021/10/19 04:40:40;;;;;;;8.43;6.18;;;;;;;17.80;62.07;101636.09;4833603;29;123732;-73
2021/10/19 04:43:07;;;;;;;11.57;6.95;;;;;;;17.82;61.96;101638.66;4834385;29;113376;-73
2021/10/19 04:45:34;;;;;;;10.23;6.68;;;;;;;17.83;62.17;101640.38;4835037;29;114010;-73
2021/10/19 04:48:02;;;;;;;10.23;6.50;;;;;;;17.84;61.98;101636.78;4833008;29;123931;-73
2021/10/19 04:50:30;;;;;;;9.98;6.65;;;;;;;17.84;62.19;101642.13;4830052;29;124743;-73
2021/10/19 04:52:57;;;;;;;12.00;6.47;;;;;;;17.84;62.14;101636.78;4835441;29;114218;-73
2021/10/19 04:55:24;;;;;;;10.15;6.63;;;;;;;17.86;62.27;101637.56;4835113;29;114613;-74
2021/10/19 04:57:51;;;;;;;9.68;6.50;;;;;;;17.87;62.28;101647.31;4834712;29;124768;-73
2021/10/19 05:00:18;;;;;;;8.63;6.68;;;;;;;17.88;62.50;101649.03;4834295;29;123352;-73
2021/10/19 05:02:49;;;;;;;13.63;7.30;;;;;;;17.88;62.50;101641.00;4834459;29;113588;-73
2021/10/19 05:05:18;;;;;;;9.77;6.47;;;;;;;17.90;62.50;101647.13;4835899;29;113708;-73
2021/10/19 05:07:47;;;;;;;9.07;6.32;;;;;;;17.89;62.45;101645.38;4835107;29;124179;-73
2021/10/19 05:10:15;;;;;;;10.60;6.40;;;;;;;17.91;62.59;101638.09;4833950;29;123739;-73
2021/10/19 05:12:42;;;;;;;11.15;6.70;;;;;;;17.91;62.65;101638.09;4833418;29;115551;-73
2021/10/19 05:15:10;;;;;;;8.60;6.45;;;;;;;17.92;62.64;101634.50;4835047;29;114697;-73
2021/10/19 05:17:37;;;;;;;12.07;6.97;;;;;;;17.92;62.57;101634.50;4833801;29;124010;-73
2021/10/19 05:20:05;;;;;;;9.43;6.22;;;;;;;17.95;62.74;101631.63;4835067;29;123811;-73
2021/10/19 05:22:32;;;;;;;9.80;6.35;;;;;;;17.97;62.67;101621.66;4834086;29;113526;-73
2021/10/19 05:24:59;;;;;;;11.40;6.70;;;;;;;17.99;62.70;101633.16;4833196;29;113982;-73
2021/10/19 05:27:26;;;;;;;9.38;6.55;;;;;;;18.00;62.78;101632.16;4833475;29;123449;-73
2021/10/19 05:29:54;;;;;;;9.48;6.68;;;;;;;18.00;62.93;101632.16;4831885;29;123432;-73
2021/10/19 05:32:21;;;;;;;9.25;6.18;;;;;;;18.02;62.79;101630.25;4847711;29;113408;-73
2021/10/19 05:34:48;;;;;;;8.32;6.18;;;;;;;18.03;62.85;101626.63;4837591;29;112420;-73
2021/10/19 05:37:15;;;;;;;8.40;6.25;;;;;;;18.04;62.97;101622.97;4834927;29;124785;-73
2021/10/19 05:39:42;;;;;;;8.38;6.40;;;;;;;18.06;62.91;101626.44;4835762;29;123824;-73
2021/10/19 05:42:09;;;;;;;8.07;5.97;;;;;;;18.07;63.02;101622.78;4838380;29;114167;-73
2021/10/19 05:44:36;;;;;;;9.30;5.78;;;;;;;18.08;62.97;101629.88;4836476;29;113864;-73
2021/10/19 05:47:03;;;;;;;7.90;5.85;;;;;;;18.08;62.87;101624.53;4837656;29;123247;-73
2021/10/19 05:49:31;;;;;;;7.93;5.80;;;;;;;18.12;63.00;101618.94;4835777;29;123940;-73
2021/10/19 05:51:58;;;;;;;7.95;5.85;;;;;;;18.11;62.98;101617.22;4836699;29;114381;-73
2021/10/19 05:54:25;;;;;;;8.27;5.97;;;;;;;18.11;63.08;101612.72;4838753;29;116131;-73
2021/10/19 05:56:53;;;;;;;9.43;5.68;;;;;;;18.11;63.00;101606.50;4835650;29;124217;-73
2021/10/19 05:59:21;;;;;;;9.63;5.75;;;;;;;18.12;63.23;101605.53;4835877;29;123568;-73
2021/10/19 06:01:49;;;;;;;8.77;5.45;;;;;;;18.14;63.30;101608.97;4837541;29;115656;-73
2021/10/19 06:04:16;;;;;;;8.02;5.72;;;;;;;18.15;63.26;101602.66;4837033;29;114094;-73
2021/10/19 06:06:58;;;;;;;8.00;5.38;;;;;;;18.15;63.33;101597.31;4838245;29;124019;-73
2021/10/19 06:09:26;;;;;;;7.68;5.35;;;;;;;18.16;63.46;101609.72;4837822;29;124798;-73
2021/10/19 06:11:54;;;;;;;7.40;5.38;;;;;;;18.18;63.33;101607.84;4836607;29;114231;-73
2021/10/19 06:14:24;;;;;;;8.32;5.72;;;;;;;18.21;63.41;101610.31;4837550;29;113397;-73
2021/10/19 06:16:52;;;;;;;6.68;5.28;;;;;;;18.23;63.48;101605.69;4834856;29;124829;-73
2021/10/19 06:19:19;;;;;;;7.10;5.35;;;;;;;18.24;63.47;101612.78;4835583;29;123543;-73
2021/10/19 06:21:47;;;;;;;7.30;4.93;;;;;;;18.26;63.59;101610.88;4836844;29;113646;-73
2021/10/19 06:24:14;;;;;;;6.90;5.25;;;;;;;18.26;63.47;101618.91;4831865;29;114055;-73
2021/10/19 06:26:42;;;;;;;7.50;5.30;;;;;;;18.27;63.33;101617.94;4844004;29;123799;-73
2021/10/19 06:29:10;;;;;;;7.57;5.40;;;;;;;18.28;63.49;101615.16;4836005;29;123795;-73
2021/10/19 06:31:38;;;;;;;6.85;5.05;;;;;;;18.30;63.57;101612.38;4837078;29;114862;-74
2021/10/19 06:34:05;;;;;;;10.13;5.30;;;;;;;18.32;63.59;101610.47;4834661;29;114616;-74
2021/10/19 06:36:33;;;;;;;6.50;4.88;;;;;;;18.32;63.57;101610.47;4834141;29;124100;-74
2021/10/19 06:39:00;;;;;;;6.53;4.95;;;;;;;18.34;63.71;101608.53;4834690;29;124062;-74
2021/10/19 06:41:27;;;;;;;7.57;5.25;;;;;;;18.36;63.77;101605.75;4836328;29;114310;-74
2021/10/19 06:43:54;;;;;;;6.85;4.70;;;;;;;18.35;63.87;101594.19;4834153;29;113280;-75
2021/10/19 06:46:39;;;;;;;5.65;4.55;;;;;;;18.38;63.74;101599.31;4836397;29;124109;-75
2021/10/19 06:49:06;;;;;;;5.30;4.18;;;;;;;18.40;63.73;101608.16;4831058;29;124387;-75
2021/10/19 06:51:33;;;;;;;6.85;4.85;;;;;;;18.41;63.86;101599.13;4833948;29;114695;-75
2021/10/19 06:54:00;;;;;;;7.15;4.78;;;;;;;18.44;63.81;101604.31;4817401;29;114245;-75
2021/10/19 06:56:27;;;;;;;6.40;5.07;;;;;;;18.46;63.76;101602.38;4835048;29;123835;-75
2021/10/19 06:58:54;;;;;;;5.80;4.45;;;;;;;18.49;64.03;101601.31;4834042;29;123626;-75
2021/10/19 07:01:21;;;;;;;5.82;4.47;;;;;;;18.51;63.91;101603.88;4835973;29;114101;-74
2021/10/19 07:03:49;;;;;;;7.38;4.90;;;;;;;18.53;64.20;101604.66;4835892;29;114295;-74
2021/10/19 07:06:16;;;;;;;5.85;4.47;;;;;;;18.54;64.13;101601.00;4832228;29;125447;-75
2021/10/19 07:08:43;;;;;;;6.75;4.93;;;;;;;18.57;64.09;101608.84;4835620;29;123367;-74
2021/10/19 07:11:11;;;;;;;9.77;5.50;;;;;;;18.58;64.14;101621.31;4834347;29;113158;-74
2021/10/19 07:13:41;;;;;;;8.27;4.90;;;;;;;18.59;64.15;101607.78;4833161;29;114398;-75
2021/10/19 07:16:08;;;;;;;6.93;5.07;;;;;;;18.63;64.29;101619.19;4834305;29;124597;-75
2021/10/19 07:18:35;;;;;;;7.00;4.95;;;;;;;18.64;64.30;101610.16;4835957;29;124750;-74
2021/10/19 07:21:02;;;;;;;6.38;4.95;;;;;;;18.66;64.28;101613.59;4835097;29;114271;-74
2021/10/19 07:23:29;;;;;;;7.53;5.43;;;;;;;18.69;64.33;101613.41;4833118;29;113309;-75
2021/10/19 07:25:57;;;;;;;6.53;5.03;;;;;;;18.71;64.33;101616.84;4835477;29;124554;-75
2021/10/19 07:28:24;;;;;;;7.03;5.22;;;;;;;18.72;64.11;101623.91;4835925;29;123010;-75
2021/10/19 07:30:51;;;;;;;8.32;5.30;;;;;;;18.73;64.18;101609.53;4837029;29;115028;-75
2021/10/19 07:33:18;;;;;;;6.90;5.15;;;;;;;18.73;64.49;101609.53;4835138;29;113598;-74
2021/10/19 07:35:46;;;;;;;7.32;5.38;;;;;;;18.75;64.35;101612.97;4846933;29;123584;-75
2021/10/19 07:38:13;;;;;;;6.40;5.10;;;;;;;18.77;64.58;101613.72;4834780;29;123645;-75
2021/10/19 07:40:40;;;;;;;8.85;5.18;;;;;;;18.80;64.50;101616.25;4836498;29;115823;-74
2021/10/19 07:43:08;;;;;;;7.07;4.95;;;;;;;18.83;64.38;101626.75;4836793;29;115195;-74
2021/10/19 07:45:35;;;;;;;7.15;5.05;;;;;;;18.86;64.50;101625.72;4835497;29;122978;-74
2021/10/19 07:48:02;;;;;;;6.70;5.07;;;;;;;18.88;64.42;101617.56;4834144;29;124478;-74
2021/10/19 07:50:30;;;;;;;7.28;4.93;;;;;;;18.91;64.54;101622.72;4833447;29;113055;-74
2021/10/19 07:52:59;;;;;;;6.32;4.95;;;;;;;18.94;64.58;101627.88;4831134;29;113984;-75
2021/10/19 07:55:27;;;;;;;6.80;4.70;;;;;;;18.95;64.53;101624.22;4834037;29;123996;-74
2021/10/19 07:57:55;;;;;;;6.97;5.18;;;;;;;18.97;64.71;101630.38;4833864;29;124567;-73
2021/10/19 08:00:24;;;;;;;5.75;4.55;;;;;;;18.98;64.29;101629.38;4834559;29;114398;-73
2021/10/19 08:02:53;;;;;;;6.25;4.75;;;;;;;19.00;64.57;101627.44;4833826;29;113672;-74
2021/10/19 08:05:21;;;;;;;6.28;5.10;;;;;;;19.02;64.60;101626.41;4834335;29;124834;-74
2021/10/19 08:07:51;;;;;;;7.40;4.75;;;;;;;19.04;64.68;101623.59;4837118;29;123424;-74
2021/10/19 08:10:23;;;;;;;8.40;4.82;;;;;;;19.06;64.90;101622.53;4835056;29;114370;-73
2021/10/19 08:12:50;;;;;;;6.88;5.07;;;;;;;19.10;64.62;101617.81;4829531;29;114122;-74
2021/10/19 08:15:17;;;;;;;6.32;4.82;;;;;;;19.13;64.64;101620.28;4833478;29;122967;-74
2021/10/19 08:17:46;;;;;;;6.35;4.88;;;;;;;19.15;64.74;101618.34;4834500;29;124155;-74
2021/10/19 08:20:14;;;;;;;5.63;4.72;;;;;;;19.18;64.89;101615.47;4832526;29;114115;-75
2021/10/19 08:22:43;;;;;;;5.90;4.70;;;;;;;19.22;64.77;101614.28;4836438;29;114158;-75
2021/10/19 08:25:11;;;;;;;5.85;4.75;;;;;;;19.24;64.86;101609.66;4835075;29;126420;-75
2021/10/19 08:27:41;;;;;;;6.38;4.25;;;;;;;19.29;64.93;101616.53;4834542;29;122682;-74
2021/10/19 08:30:11;;;;;;;5.57;4.20;;;;;;;19.31;64.76;101617.28;4834555;29;116916;-74
2021/10/19 08:32:39;;;;;;;5.30;4.20;;;;;;;19.35;64.93;101618.81;4846422;29;113951;-74
2021/10/19 08:35:07;;;;;;;4.43;3.70;;;;;;;19.38;64.97;101615.88;4829445;29;123775;-75
2021/10/19 08:37:35;;;;;;;7.22;4.00;;;;;;;19.40;65.02;101608.56;4834150;29;123796;-74
2021/10/19 08:40:04;;;;;;;5.22;3.83;;;;;;;19.46;65.03;101618.91;4832384;29;114802;-75
2021/10/19 08:42:32;;;;;;;4.38;3.80;;;;;;;19.48;64.86;101622.34;4835247;29;112885;-75
2021/10/19 08:45:01;;;;;;;5.60;3.88;;;;;;;19.51;65.08;101622.13;4834980;29;123021;-75
2021/10/19 08:47:28;;;;;;;4.25;3.45;;;;;;;19.54;65.06;101605.78;4817872;29;123165;-75
2021/10/19 08:49:55;;;;;;;4.75;3.47;;;;;;;19.55;65.01;101615.59;4834464;29;114369;-75
2021/10/19 08:52:22;;;;;;;4.75;3.40;;;;;;;19.58;65.05;101614.50;4833742;29;113815;-75
2021/10/19 08:54:49;;;;;;;4.43;3.42;;;;;;;19.62;65.04;101611.47;4833544;29;123686;-75
2021/10/19 08:57:16;;;;;;;3.95;3.55;;;;;;;19.65;64.99;101613.94;4830539;29;123790;-75
2021/10/19 08:59:45;;;;;;;4.25;3.53;;;;;;;19.70;65.20;101615.44;4832888;29;114849;-75
2021/10/19 09:02:13;;;;;;;3.55;3.20;;;;;;;19.75;64.99;101613.31;4835669;29;113759;-77
2021/10/19 09:04:44;;;;;;;4.05;3.10;;;;;;;19.78;65.22;101613.13;4829926;29;124654;-76
2021/10/19 09:07:11;;;;;;;4.18;3.08;;;;;;;19.80;65.17;101606.66;4835983;29;123549;-75
2021/10/19 09:09:39;;;;;;;4.45;3.17;;;;;;;19.84;64.91;101607.28;4835938;29;113169;-76
2021/10/19 09:12:06;;;;;;;3.47;2.83;;;;;;;19.86;64.96;101610.72;4838489;29;114219;-75
2021/10/19 09:14:37;;;;;;;4.75;2.90;;;;;;;19.85;65.01;101611.69;4852079;29;123610;-75
2021/10/19 09:17:05;;;;;;;4.10;2.90;;;;;;;19.88;64.87;101614.16;4835675;29;124454;-75
2021/10/19 09:19:35;;;;;;;4.85;2.55;;;;;;;19.89;64.97;101615.88;4836270;29;114543;-75
2021/10/19 09:22:05;;;;;;;3.28;2.50;;;;;;;19.90;65.01;101612.22;4836669;29;115594;-76
2021/10/19 09:24:34;;;;;;;3.70;2.80;;;;;;;19.93;65.13;101617.38;4835271;29;124791;-75
2021/10/19 09:27:04;;;;;;;3.00;2.70;;;;;;;19.93;65.03;101612.00;4837071;29;123749;-75
2021/10/19 09:29:40;;;;;;;4.18;2.60;;;;;;;19.95;65.11;101612.75;4836849;29;114442;-76
2021/10/19 09:32:08;;;;;;;3.17;2.70;;;;;;;19.96;65.21;101611.75;4837245;29;113812;-75
2021/10/19 09:34:37;;;;;;;2.80;2.50;;;;;;;19.97;65.07;101613.50;4835889;29;122311;-75
2021/10/19 09:37:06;;;;;;;2.35;2.15;;;;;;;20.01;65.11;101609.59;4837555;29;123738;-75
2021/10/19 09:39:39;;;;;;;2.35;2.00;;;;;;;20.05;65.30;101602.19;4837734;29;113150;-75
2021/10/19 09:42:17;;;;;;;3.92;2.60;;;;;;;20.08;65.33;101601.97;4835879;29;114755;-75
2021/10/19 09:44:59;;;;;;;2.53;1.92;;;;;;;20.14;65.17;101603.34;4824065;29;124131;-75
2021/10/19 09:47:37;;;;;;;2.60;2.17;;;;;;;20.16;65.15;101601.41;4836981;29;123802;-75
2021/10/19 09:50:06;;;;;;;2.70;1.95;;;;;;;20.18;65.19;101615.59;4851147;29;114022;-75
2021/10/19 09:52:37;;;;;;;2.22;1.90;;;;;;;20.21;65.20;101612.66;4837389;29;113216;-75
2021/10/19 09:55:09;;;;;;;2.28;1.85;;;;;;;20.23;65.26;101616.13;4826197;29;124552;-75
2021/10/19 09:57:38;;;;;;;2.67;2.10;;;;;;;20.25;65.06;101616.88;4821559;29;123846;-75
2021/10/19 10:00:06;;;;;;;3.03;2.10;;;;;;;20.27;64.94;101614.91;4829219;29;114857;-74
2021/10/19 10:02:39;;;;;;;2.85;2.30;;;;;;;20.28;64.92;101615.78;4834431;29;113931;-75
2021/10/19 10:05:07;;;;;;;2.55;2.15;;;;;;;20.29;65.10;101618.34;4837075;29;123535;-75
2021/10/19 10:07:37;;;;;;;2.95;2.30;;;;;;;20.30;65.10;101624.59;4836941;29;123838;-75
2021/10/19 10:10:05;;;;;;;2.80;2.28;;;;;;;20.32;65.11;101618.09;4837494;28;115687;-75
2021/10/19 10:12:33;;;;;;;3.78;2.50;;;;;;;20.34;65.22;101626.94;4834677;29;114723;-75
2021/10/19 10:15:01;;;;;;;4.68;2.60;;;;;;;20.37;65.12;101626.69;4821552;29;124029;-75
2021/10/19 10:17:28;;;;;;;3.22;2.92;;;;;;;20.38;65.21;101623.06;4832224;29;123700;-75
2021/10/19 10:20:06;;;;;;;4.00;3.05;;;;;;;20.40;65.17;101615.72;4832147;29;113690;-74
2021/10/19 10:22:42;;;;;;;4.75;3.22;;;;;;;20.41;65.13;101614.72;4832946;29;113816;-75
2021/10/19 10:25:14;;;;;;;4.65;3.30;;;;;;;20.42;65.18;101619.16;4825363;29;124310;-74
2021/10/19 10:27:41;;;;;;;4.10;3.50;;;;;;;20.46;65.04;101616.25;4834963;29;124671;-74
2021/10/19 10:30:18;;;;;;;6.90;3.50;;;;;;;20.47;65.10;101617.94;4832653;29;113346;-75
2021/10/19 10:32:45;;;;;;;4.38;3.53;;;;;;;20.49;65.19;101616.00;4850866;29;113523;-74
2021/10/19 10:35:16;;;;;;;5.10;3.80;;;;;;;20.51;65.48;101622.13;4835447;29;123421;-75
2021/10/19 10:37:52;;;;;;;6.60;4.03;;;;;;;20.55;65.20;101602.06;4851927;29;123186;-75
2021/10/19 10:40:29;;;;;;;5.88;4.63;;;;;;;20.57;65.17;101605.53;4831194;29;114888;-75
2021/10/19 10:42:59;;;;;;;6.55;4.70;;;;;;;20.59;65.18;101608.97;4845693;29;113449;-75
2021/10/19 10:45:33;;;;;;;7.10;4.78;;;;;;;20.59;65.19;101611.66;4835861;29;124935;-75
2021/10/19 10:48:04;;;;;;;6.30;4.75;;;;;;;20.63;65.33;101609.63;4832789;29;123704;-75
2021/10/19 10:50:34;;;;;;;6.43;4.80;;;;;;;20.67;65.37;101609.28;4835968;29;113903;-75
2021/10/19 10:53:09;;;;;;;5.97;4.85;;;;;;;20.68;65.22;101602.94;4851048;29;113144;-75
2021/10/19 10:55:48;;;;;;;7.18;5.15;;;;;;;20.73;65.26;101610.66;4832954;29;124124;-75
2021/10/19 10:58:26;;;;;;;7.07;5.03;;;;;;;20.74;65.20;101610.53;4831093;29;124303;-75
2021/10/19 11:00:54;;;;;;;7.57;5.53;;;;;;;20.76;65.34;101616.66;4833216;29;115799;-75
2021/10/19 11:03:21;;;;;;;8.93;5.50;;;;;;;20.80;65.22;101606.50;4833296;29;115029;-75
2021/10/19 11:05:58;;;;;;;7.75;5.68;;;;;;;20.83;65.25;101600.03;4832663;29;124663;-75
2021/10/19 11:08:36;;;;;;;7.45;5.47;;;;;;;20.85;65.22;101600.75;4833902;29;124634;-75
2021/10/19 11:11:06;;;;;;;10.32;5.82;;;;;;;20.87;65.22;101599.69;4832548;29;114335;-76
2021/10/19 11:13:55;;;;;;;7.80;5.70;;;;;;;20.89;65.28;101588.78;4836093;29;114010;-75
2021/10/19 11:16:35;;;;;;;8.43;5.93;;;;;;;20.92;65.15;101589.41;4834794;29;123947;-75
2021/10/19 11:19:05;;;;;;;7.15;5.70;;;;;;;20.95;65.15;101582.94;4831305;29;122812;-76
2021/10/19 11:21:32;;;;;;;9.02;6.30;;;;;;;20.98;65.27;101582.69;4834850;29;113270;-76